This is the latest recevied weather packets stored in our database for station/object WK7G. If no packets are shown the sender has not sent any weather packets the latest 10 day(s).
| Time | Temp. | Humidity | Pressure | Rain* | Wind** | Luminosity | Snow |
|---|---|---|---|---|---|---|---|
| 1777605525 | 2.78° C | 59% | 1013.4 hPa | 0 mm | - | 0 W/m² | - |
| 1777605221 | 2.22° C | 62% | 1013.1 hPa | 0 mm | - | 0 W/m² | - |
| 1777604917 | 3.33° C | 58% | 1012.9 hPa | 0 mm | - | 0 W/m² | - |
| 1777604612 | 5° C | 47% | 1013 hPa | 0 mm | - | 0 W/m² | - |
| 1777604309 | 5° C | 45% | 1012.7 hPa | 0 mm | - | 0 W/m² | - |
| 1777604004 | 5.56° C | 49% | 1012.5 hPa | 0 mm | - | 0 W/m² | - |
| 1777603701 | 5° C | 49% | 1012.7 hPa | 0 mm | - | 0 W/m² | - |
| 1777603398 | 4.44° C | 57% | 1012.5 hPa | 0 mm | - | 0 W/m² | - |
| 1777603094 | 5.56° C | 53% | 1012.8 hPa | 0 mm | - | 0 W/m² | - |
| 1777602794 | 6.67° C | 46% | 1012.4 hPa | 0 mm | - | 1 W/m² | - |
| 1777602489 | 6.11° C | 49% | 1012.4 hPa | 0 mm | - | 1 W/m² | - |
| 1777602186 | 6.67° C | 47% | 1012.7 hPa | 0 mm | - | 4 W/m² | - |
| 1777601881 | 7.78° C | 46% | 1012.4 hPa | 0 mm | - | 6 W/m² | - |
| 1777601576 | 8.33° C | 40% | 1012.4 hPa | 0 mm | - | 9 W/m² | - |
| 1777601272 | 8.89° C | 39% | 1012.1 hPa | 0 mm | - | 13 W/m² | - |
| 1777600969 | 9.44° C | 39% | 1012.1 hPa | 0 mm | - | 15 W/m² | - |
| 1777600665 | 10° C | 36% | 1012.4 hPa | 0 mm | - | 18 W/m² | - |
| 1777600361 | 10° C | 35% | 1012.1 hPa | 0 mm | - | 21 W/m² | - |
| 1777600057 | 10.56° C | 35% | 1012.2 hPa | 0 mm | - | 24 W/m² | - |
| 1777599753 | 10.56° C | 33% | 1012.4 hPa | 0 mm | - | 26 W/m² | - |
| 1777599449 | 10.56° C | 32% | 1012.2 hPa | 0 mm | - | 28 W/m² | - |
| 1777599147 | 10.56° C | 31% | 1011.9 hPa | 0 mm | - | 31 W/m² | - |
| 1777598845 | 11.11° C | 33% | 1012.1 hPa | 0 mm | - | 33 W/m² | - |
| 1777598545 | 11.11° C | 29% | 1011.9 hPa | 0 mm | - | 34 W/m² | - |
| 1777598240 | 11.11° C | 31% | 1012.2 hPa | 0 mm | - | 37 W/m² | - |
* Rain latest hour (hover to see other rain measurements)
** Current wind speed in m/s (hover to see current wind gust speed)